Terminal Aerodrome Forecast
Issued by NWS

Home | Current Version | Previous Version | Text Only | Print | Product List | Glossary On
Versions: 1 2 3 4 5 6 7 8 9 10 11 12 13 14 15 16 17 18 19 20 21 22 23
000
FTUS45 KREV 041126
TAFTVL
TAF
KTVL 041126Z 0412/0512 VRB03KT P6SM SCT180
     FM041900 04007KT P6SM FEW070 SCT120
     FM042100 05007KT P6SM VCTS SCT060CB BKN120
     FM050100 19006KT P6SM VCSH BKN070 BKN100
     FM050400 VRB03KT P6SM SCT100 BKN180=

USA.gov is the U.S. government's official web portal to all federal, state and local government web resources and services.